AirNav   $300 off a Bose A20
 
 619 users online  

75PN Beaver Seaplane Base
Beaver, Pennsylvania, USA

GOING TO BEAVER?


FAA INFORMATION EFFECTIVE 18 JULY 2019

Location

FAA Identifier: 75PN
Lat/Long: 40-41-08.2370N / 080-18-36.2240W
40-41.137283N / 080-18.603733W
40.6856214 / -80.3100622
(estimated)
Elevation: 682 ft. / 208 m (estimated)
Variation: 07W (1985)
Time zone: UTC -4 (UTC -5 during Standard Time)
Zip code: 15061

Seaplane Base Operations

Seaplane Base use: Private use. Permission required prior to landing
Activation date: 02/1982
Control tower: no
ARTCC: CLEVELAND CENTER
FSS: ALTOONA FLIGHT SERVICE STATION
Attendance: APR-DEC MON-FRI IREG
Wind indicator: yes
Segmented circle: no

Seaplane Base Communications

UNICOM: 122.8
WX AWOS-3PT at BVI (6 nm NW): 118.35 (724-843-1024)
WX AWOS-3 at PJC (10 nm NE): 118.45 (724-452-5304)
WX ASOS at PIT (12 nm S): PHONE 412-472-0145
WX AWOS-3PT at BTP (17 nm E): 121.450 (724-586-6434)
WX AWOS-A at 42PN (20 nm SE): PHONE 412-442-2213

Nearby radio navigation aids

VOR radial/distance  VOR name  Freq  Var
EWCr216/9.5ELLWOOD CITY VOR/DME115.8008W
AGCr342/27.3ALLEGHENY VOR/DME110.0009W
HLGr032/28.1WHEELING VOR/DME112.2007W

 
NDB name  Hdg/Dist  Freq  Var  ID
CASTLE176/20.827209WUCP ..- -.-. .--.

Seaplane Base Services

Runway Information

Runway 7W/25W

Dimensions: 5000 x 500 ft. / 1524 x 152 m
Surface: water
RUNWAY 7W  RUNWAY 25W
Traffic pattern: leftright
Obstructions: 130 ft. bridge, 3300 ft. from runway160 ft. bridge, 3700 ft. from runway

Seaplane Base Ownership and Management from official FAA records

Ownership: Privately-owned
Owner: JONES AIR INC
728 GRANDIN RD
CHARLOTTE, NC 28208
Phone (704) 985-4714
Manager: DAVID E. JONES
728 GRANDIN RD
CHARLOTTE, NC 28208
Phone (704) 985-4714

Additional Remarks

FOR CD CTC PITTSBURGH APCH AT 412-472-5591

Instrument Procedures

There are no published instrument procedures at 75PN.

Some nearby airports with instrument procedures:

KBVI - Beaver County Airport (6 nm NW)
KPJC - Zelienople Municipal Airport (10 nm NE)
KPIT - Pittsburgh International Airport (12 nm S)
02G - Columbiana County Airport (15 nm W)
KBTP - Pittsburgh/Butler Regional Airport (17 nm E)
 
Loc | Ops | Rwys | IFR | FBO | Links
Com | Nav | Svcs | Stats | Notes
Area around 75PN (Beaver Seaplane Base)
 
Road maps at: MapQuest Bing Google
 
Aerial photo
No photo
 
Sectional chart

 
Airport distance calculator
Flying to Beaver Seaplane Base? Find the distance to fly.

From to 75PN

Sunrise and sunset
Times for 19-Jul-2019
 Local
(UTC-4)
 Zulu
(UTC)
Morning civil twilight05:3509:35
Sunrise06:0710:07
Sunset20:4800:48
Evening civil twilight21:2001:20

Current date and time
Zulu (UTC)  19-Jul-2019 05:07:12
Local (UTC-4)  19-Jul-2019 01:07:12
 
METAR
KBVI 
6nm NW 
182347Z 15004KT 10SM CLR 27/21 A2989
KPIT 
11nm S 
190451Z 19003KT 10SM FEW250 24/21 A2995 RMK AO2 SLP138 T02390211 403060206
KBTP 
17nm E 
190456Z AUTO 20004KT 10SM CLR 23/21 A2997 RMK AO2 SLP142 T02280211 403000200
TAF
KBVI 
6nm NW 
181722Z 1818/1918 VRB05KT P6SM SCT025 FM190900 22006KT P6SM BKN006 FM191400 24011KT P6SM SCT025
KPIT 
11nm S 
190255Z 1903/2006 24005KT P6SM SCT250 FM191800 25012G18KT P6SM SCT035
NOTAMs
Click for the latest NOTAMs
NOTAMs are issued by the DoD/FAA and will open in a separate window not controlled by AirNav.

 

 
 

Would you like to see your business listed on this page?

 If your business provides an interesting product or service to pilots, flight crews, aircraft, or users of the Beaver Seaplane Base, you should consider listing it here.  To start the listing process, click on the button below
 
Add a business
 

Other Pages about Beaver Seaplane Base

Update a link
 
Copyright © AirNav, LLC. All rights reserved. Privacy Policy  Contact